Time;durP1;ratioP1;P1;durP2;ratioP2;P2;SDS_P1;SDS_P2;PMS_P1;PMS_P2;Temp;Humidity;BMP_temperature;BMP_pressure;BME280_temperature;BME280_humidity;BME280_pressure;Samples;Min_cycle;Max_cycle;Signal;HPM_P1;HPM_P2
2023/05/11 00:00:37;;;;;;;27.27;24.33;;;;;;;11.65;100.00;101343.97;5009735;28;20029;-74
2023/05/11 00:03:06;;;;;;;27.38;24.35;;;;;;;11.67;100.00;101341.22;5010569;28;20605;-74
2023/05/11 00:05:31;;;;;;;29.25;23.92;;;;;;;11.63;100.00;101340.59;5010964;28;20034;-74
2023/05/11 00:07:57;;;;;;;29.23;23.63;;;;;;;11.63;100.00;101340.59;5019190;28;20032;-74
2023/05/11 00:10:22;;;;;;;27.27;22.73;;;;;;;11.67;100.00;101339.44;5009198;28;20037;-74
2023/05/11 00:12:48;;;;;;;25.88;23.08;;;;;;;11.67;100.00;101336.81;5022005;28;20401;-74
2023/05/11 00:15:13;;;;;;;26.55;23.27;;;;;;;11.67;100.00;101335.97;5030439;28;20025;-74
2023/05/11 00:17:39;;;;;;;26.52;22.73;;;;;;;11.70;100.00;101335.75;5030207;28;20100;-74
2023/05/11 00:20:05;;;;;;;27.13;23.40;;;;;;;11.66;100.00;101337.75;5030314;28;20040;-74
2023/05/11 00:22:31;;;;;;;26.02;23.25;;;;;;;11.65;100.00;101328.16;5030904;28;20409;-74
2023/05/11 00:24:56;;;;;;;27.40;23.63;;;;;;;11.66;100.00;101331.63;5025189;28;20021;-74
2023/05/11 00:27:22;;;;;;;28.00;23.88;;;;;;;11.65;100.00;101328.16;5014373;28;20104;-74
2023/05/11 00:29:47;;;;;;;26.40;23.52;;;;;;;11.65;100.00;101333.44;5022106;28;20033;-74
2023/05/11 00:32:13;;;;;;;26.17;23.27;;;;;;;11.65;100.00;101328.16;5029306;28;20017;-74
2023/05/11 00:34:38;;;;;;;29.52;24.55;;;;;;;11.65;100.00;101335.22;5031527;28;20037;-74
2023/05/11 00:37:03;;;;;;;28.20;24.23;;;;;;;11.66;100.00;101335.13;5049316;28;20020;-74
2023/05/11 00:39:38;;;;;;;32.47;26.17;;;;;;;11.64;100.00;101334.38;5049211;28;20017;-74
2023/05/11 00:42:13;;;;;;;37.17;26.90;;;;;;;11.62;100.00;101331.00;5030603;28;20056;-74
2023/05/11 00:44:39;;;;;;;34.90;27.58;;;;;;;11.56;100.00;101334.06;5028115;28;20108;-74
2023/05/11 00:47:05;;;;;;;37.20;27.98;;;;;;;11.55;100.00;101337.63;5026511;28;20114;-74
2023/05/11 00:49:30;;;;;;;35.13;27.08;;;;;;;11.55;100.00;101332.38;5027817;28;20044;-74
2023/05/11 00:51:56;;;;;;;36.20;28.30;;;;;;;11.53;100.00;101340.38;5029783;28;20083;-74
2023/05/11 00:54:23;;;;;;;37.33;30.25;;;;;;;11.52;100.00;101338.69;5028738;28;20490;-74
2023/05/11 00:56:49;;;;;;;37.72;29.10;;;;;;;11.53;100.00;101329.84;5029803;28;20029;-75
2023/05/11 00:59:15;;;;;;;36.17;29.38;;;;;;;11.52;100.00;101343.13;5028043;28;20508;-74
2023/05/11 01:01:40;;;;;;;40.75;30.88;;;;;;;11.52;100.00;101343.13;5023826;28;20446;-74
2023/05/11 01:04:06;;;;;;;38.42;30.77;;;;;;;11.53;100.00;101344.81;5022487;28;20478;-74
2023/05/11 01:06:50;;;;;;;38.78;30.25;;;;;;;11.54;100.00;101343.88;5029401;28;20470;-74
2023/05/11 01:09:53;;;;;;;38.00;30.25;;;;;;;11.54;100.00;101347.34;5048575;28;20068;-74
2023/05/11 01:12:36;;;;;;;39.38;29.95;;;;;;;11.49;100.00;101343.34;5048551;28;20385;-74
2023/05/11 01:15:13;;;;;;;38.58;30.17;;;;;;;11.50;100.00;101351.16;5043297;28;20392;-74
2023/05/11 01:17:57;;;;;;;42.95;29.98;;;;;;;11.51;100.00;101349.34;5026916;28;20470;-74
2023/05/11 01:20:27;;;;;;;44.30;31.00;;;;;;;11.48;100.00;101344.28;5029358;28;20726;-74
2023/05/11 01:23:30;;;;;;;37.85;29.92;;;;;;;11.51;100.00;101341.44;5029604;28;20032;-74
2023/05/11 01:26:10;;;;;;;40.83;30.00;;;;;;;11.51;100.00;101349.34;5037109;28;20497;-74
2023/05/11 01:29:05;;;;;;;44.00;30.25;;;;;;;11.50;100.00;101356.41;5049060;28;20466;-74
2023/05/11 01:31:32;;;;;;;43.83;29.67;;;;;;;11.50;100.00;101345.88;5048274;28;20098;-74
2023/05/11 01:34:13;;;;;;;39.53;30.40;;;;;;;11.52;100.00;101353.66;5029292;28;20037;-74
2023/05/11 01:36:51;;;;;;;43.83;30.83;;;;;;;11.49;100.00;101353.88;5046093;28;20506;-74
2023/05/11 01:39:21;;;;;;;45.70;30.88;;;;;;;11.49;100.00;101351.25;5032785;28;20053;-74
2023/05/11 01:41:52;;;;;;;46.55;31.42;;;;;;;11.49;100.00;101353.88;5030914;28;20104;-74
2023/05/11 01:44:22;;;;;;;45.00;32.45;;;;;;;11.47;100.00;101350.50;5029889;28;20029;-73
2023/05/11 01:46:49;;;;;;;45.30;31.95;;;;;;;11.46;100.00;101352.31;5030119;28;20037;-74
2023/05/11 01:49:16;;;;;;;42.47;32.40;;;;;;;11.47;100.00;101346.09;5031043;28;20064;-74
2023/05/11 01:51:44;;;;;;;51.20;34.13;;;;;;;11.46;100.00;101346.19;5026770;28;20044;-74
2023/05/11 01:54:10;;;;;;;47.83;33.03;;;;;;;11.47;100.00;101354.00;5031937;28;20036;-74
2023/05/11 01:56:39;;;;;;;47.13;32.88;;;;;;;11.44;100.00;101348.94;5031280;28;20112;-74
2023/05/11 01:59:06;;;;;;;48.00;33.00;;;;;;;11.43;100.00;101359.59;5030931;28;20095;-74
2023/05/11 02:01:35;;;;;;;47.90;32.92;;;;;;;11.42;100.00;101350.84;5030573;28;20497;-74
2023/05/11 02:04:06;;;;;;;50.65;34.00;;;;;;;11.42;100.00;101352.63;5032607;28;20083;-74
2023/05/11 02:06:37;;;;;;;52.60;36.13;;;;;;;11.40;100.00;101352.75;5030748;28;20470;-74
2023/05/11 02:09:09;;;;;;;48.75;34.13;;;;;;;11.41;100.00;101349.16;5039585;28;20076;-74
2023/05/11 02:11:36;;;;;;;46.87;34.87;;;;;;;11.44;100.00;101353.38;5037359;28;20117;-74
2023/05/11 02:14:06;;;;;;;52.85;36.42;;;;;;;11.43;100.00;101349.03;5048189;28;20029;-74
2023/05/11 02:16:34;;;;;;;50.67;35.42;;;;;;;11.41;100.00;101348.31;5027610;28;20030;-73
2023/05/11 02:19:07;;;;;;;50.03;35.53;;;;;;;11.42;100.00;101344.72;5031841;28;20048;-74
2023/05/11 02:21:37;;;;;;;59.85;37.90;;;;;;;11.40;100.00;101344.00;5032810;28;20060;-74
2023/05/11 02:24:05;;;;;;;58.53;38.08;;;;;;;11.41;100.00;101338.63;5031193;28;20041;-74
2023/05/11 02:26:31;;;;;;;59.60;39.70;;;;;;;11.40;100.00;101339.56;5040093;28;20056;-74
2023/05/11 02:28:56;;;;;;;59.03;40.17;;;;;;;11.38;100.00;101335.34;5032480;28;20080;-74
2023/05/11 02:31:31;;;;;;;55.65;39.20;;;;;;;11.40;100.00;101338.72;5030287;28;20456;-74
2023/05/11 02:34:06;;;;;;;57.63;39.53;;;;;;;11.40;100.00;101328.19;5045797;28;20029;-74
2023/05/11 02:36:36;;;;;;;58.63;40.05;;;;;;;11.38;100.00;101340.63;5032238;28;20395;-74
2023/05/11 02:39:08;;;;;;;65.90;41.28;;;;;;;11.38;100.00;101344.09;5031437;28;20017;-74
2023/05/11 02:41:40;;;;;;;59.42;42.67;;;;;;;11.40;100.00;101344.00;5032024;28;20391;-74
2023/05/11 02:44:08;;;;;;;58.30;41.67;;;;;;;11.39;100.00;101342.31;5045390;28;20052;-74
2023/05/11 02:46:35;;;;;;;61.17;40.75;;;;;;;11.39;100.00;101340.50;5029410;28;20021;-74
2023/05/11 02:49:04;;;;;;;61.67;41.85;;;;;;;11.38;100.00;101345.88;5029143;28;20022;-74
2023/05/11 02:51:34;;;;;;;59.30;40.60;;;;;;;11.37;100.00;101344.22;5042679;28;20030;-74
2023/05/11 02:54:11;;;;;;;58.28;39.63;;;;;;;11.38;100.00;101343.25;5030941;28;20057;-74
2023/05/11 02:56:38;;;;;;;60.33;42.10;;;;;;;11.35;100.00;101338.19;5030425;28;20398;-74
2023/05/11 02:59:04;;;;;;;61.95;42.08;;;;;;;11.36;100.00;101342.53;5030420;28;20024;-74
2023/05/11 03:01:32;;;;;;;58.72;42.22;;;;;;;11.35;100.00;101346.09;5037635;28;20489;-74
2023/05/11 03:03:58;;;;;;;57.83;42.10;;;;;;;11.33;100.00;101342.75;5031697;28;20033;-74
2023/05/11 03:06:24;;;;;;;55.33;41.88;;;;;;;11.33;100.00;101345.38;5028829;28;20032;-74
2023/05/11 03:08:50;;;;;;;65.03;45.47;;;;;;;11.28;100.00;101346.53;5031075;28;20038;-74
2023/05/11 03:11:21;;;;;;;60.67;43.47;;;;;;;11.22;100.00;101346.97;5031175;28;20371;-74
2023/05/11 03:13:47;;;;;;;60.03;43.88;;;;;;;11.19;100.00;101347.13;5030449;28;20148;-74
2023/05/11 03:16:13;;;;;;;60.10;42.08;;;;;;;11.16;100.00;101342.09;5029839;28;20490;-74
2023/05/11 03:18:39;;;;;;;60.45;42.75;;;;;;;11.10;100.00;101342.50;5031350;28;20053;-74
2023/05/11 03:21:06;;;;;;;60.20;42.08;;;;;;;11.06;100.00;101345.47;5030366;28;20091;-74
2023/05/11 03:23:33;;;;;;;64.55;43.60;;;;;;;11.04;100.00;101356.09;5025737;28;20026;-74
2023/05/11 03:26:05;;;;;;;60.53;44.35;;;;;;;11.01;100.00;101356.31;5037220;28;20112;-74
2023/05/11 03:28:33;;;;;;;61.33;43.40;;;;;;;10.97;100.00;101358.31;5021191;28;20662;-74
2023/05/11 03:30:58;;;;;;;57.50;43.08;;;;;;;10.95;100.00;101359.34;5020943;28;20030;-74
2023/05/11 03:33:24;;;;;;;63.45;42.17;;;;;;;10.93;100.00;101356.81;5028281;28;20047;-74
2023/05/11 03:35:52;;;;;;;57.65;41.55;;;;;;;10.92;100.00;101365.66;5028801;28;20079;-74
2023/05/11 03:38:21;;;;;;;64.18;42.40;;;;;;;10.94;100.00;101357.66;5029187;28;20025;-74
2023/05/11 03:40:48;;;;;;;67.18;44.00;;;;;;;10.93;100.00;101350.72;5012031;28;20585;-74
2023/05/11 03:43:16;;;;;;;64.28;43.22;;;;;;;10.91;100.00;101357.88;5013595;28;20469;-74
2023/05/11 03:45:42;;;;;;;63.35;43.15;;;;;;;10.89;100.00;101350.09;5024132;28;20056;-74
2023/05/11 03:48:10;;;;;;;58.88;41.53;;;;;;;10.86;100.00;101352.09;5026768;28;20037;-74
2023/05/11 03:50:37;;;;;;;54.90;39.85;;;;;;;10.86;100.00;101347.66;5028762;28;20091;-74
2023/05/11 03:53:04;;;;;;;50.70;38.30;;;;;;;10.81;100.00;101349.75;5026826;28;20023;-74
2023/05/11 03:55:30;;;;;;;55.25;39.60;;;;;;;10.79;100.00;101338.47;5025118;28;20021;-74
2023/05/11 03:57:56;;;;;;;54.65;41.33;;;;;;;10.80;100.00;101349.84;5014236;28;20021;-74
2023/05/11 04:00:22;;;;;;;67.80;43.33;;;;;;;10.78;100.00;101357.00;5008446;28;20029;-73
2023/05/11 04:02:47;;;;;;;71.35;45.40;;;;;;;10.82;100.00;101353.25;5009762;28;20030;-74
2023/05/11 04:05:17;;;;;;;67.65;46.10;;;;;;;10.85;100.00;101356.50;5008524;28;20079;-73
2023/05/11 04:07:43;;;;;;;71.13;47.75;;;;;;;10.86;100.00;101352.09;5031552;28;20044;-74
2023/05/11 04:10:08;;;;;;;74.57;48.05;;;;;;;10.88;100.00;101355.47;5044531;28;20394;-73
2023/05/11 04:12:43;;;;;;;73.35;48.55;;;;;;;10.87;100.00;101351.13;5029377;28;20033;-73
2023/05/11 04:15:09;;;;;;;80.75;51.75;;;;;;;10.89;100.00;101355.34;5025048;28;20057;-73
2023/05/11 04:17:34;;;;;;;87.47;52.42;;;;;;;10.90;100.00;101353.56;5029735;28;20504;-74
2023/05/11 04:20:04;;;;;;;81.13;52.22;;;;;;;10.91;100.00;101347.34;5029181;28;20045;-73
2023/05/11 04:22:29;;;;;;;83.95;52.75;;;;;;;10.91;100.00;101345.56;5027996;28;20029;-73
2023/05/11 04:24:56;;;;;;;83.43;52.50;;;;;;;10.90;100.00;101350.94;5029741;28;20466;-74
2023/05/11 04:27:21;;;;;;;90.70;54.53;;;;;;;10.92;100.00;101347.25;5029028;28;20073;-73
2023/05/11 04:29:47;;;;;;;95.25;55.65;;;;;;;10.91;100.00;101352.63;5024698;28;20168;-73
2023/05/11 04:32:13;;;;;;;85.43;54.50;;;;;;;10.97;100.00;101352.19;5025890;28;20030;-73
2023/05/11 04:34:39;;;;;;;84.93;53.88;;;;;;;10.95;100.00;101343.56;5024402;28;20022;-73
2023/05/11 04:37:06;;;;;;;83.80;53.53;;;;;;;11.01;100.00;101344.94;5010015;28;20041;-74
2023/05/11 04:39:33;;;;;;;85.25;54.67;;;;;;;11.01;100.00;101351.03;5016507;28;20032;-73
2023/05/11 04:42:05;;;;;;;86.55;54.53;;;;;;;11.03;100.00;101350.94;5028982;28;20049;-74
2023/05/11 04:44:30;;;;;;;91.38;55.92;;;;;;;11.04;100.00;101347.34;5027827;28;20021;-74
2023/05/11 04:46:56;;;;;;;84.40;55.17;;;;;;;11.11;100.00;101359.16;5023288;28;20497;-74
2023/05/11 04:49:22;;;;;;;88.72;55.97;;;;;;;11.12;100.00;101355.56;5024509;28;20029;-74
2023/05/11 04:51:47;;;;;;;88.90;54.85;;;;;;;11.11;100.00;101357.34;5029027;28;20036;-74
2023/05/11 04:54:13;;;;;;;91.20;55.17;;;;;;;11.13;100.00;101362.53;5028060;28;20470;-74
2023/05/11 04:56:39;;;;;;;84.53;53.97;;;;;;;11.15;100.00;101365.91;5028720;28;20107;-74
2023/05/11 04:59:12;;;;;;;85.20;53.42;;;;;;;11.20;100.00;101374.31;5022184;28;20143;-74
2023/05/11 05:01:37;;;;;;;87.40;55.17;;;;;;;11.25;100.00;101373.09;5025557;28;20075;-74
2023/05/11 05:04:03;;;;;;;88.38;52.75;;;;;;;11.27;100.00;101371.19;5025887;28;20120;-74
2023/05/11 05:06:28;;;;;;;83.03;52.00;;;;;;;11.29;100.00;101379.00;5029388;28;20033;-74
2023/05/11 05:08:53;;;;;;;80.22;50.63;;;;;;;11.34;100.00;101376.03;5037766;28;20601;-74
2023/05/11 05:11:20;;;;;;;77.45;48.95;;;;;;;11.37;100.00;101378.47;5032488;28;20025;-74
2023/05/11 05:13:45;;;;;;;80.53;50.85;;;;;;;11.37;100.00;101381.09;5031824;28;20086;-74
2023/05/11 05:16:11;;;;;;;77.35;50.05;;;;;;;11.42;100.00;101381.63;5031669;28;20104;-75
2023/05/11 05:18:36;;;;;;;71.72;48.38;;;;;;;11.44;100.00;101382.34;5026299;28;20021;-74
2023/05/11 05:21:08;;;;;;;76.07;47.28;;;;;;;11.43;100.00;101389.41;5027587;28;20589;-74
2023/05/11 05:23:33;;;;;;;75.68;48.67;;;;;;;11.46;100.00;101396.25;5021937;28;20482;-74
2023/05/11 05:26:04;;;;;;;70.07;47.28;;;;;;;11.46;100.00;101396.25;5029791;28;20032;-74
2023/05/11 05:28:30;;;;;;;75.30;47.97;;;;;;;11.50;100.00;101397.72;5031958;28;20029;-74
2023/05/11 05:30:55;;;;;;;75.93;48.78;;;;;;;11.53;100.00;101398.38;5032858;28;20649;-74
2023/05/11 05:33:21;;;;;;;67.70;46.75;;;;;;;11.64;100.00;101399.44;5031727;28;20032;-74
2023/05/11 05:35:46;;;;;;;68.55;46.80;;;;;;;11.67;100.00;101401.84;5032797;28;20075;-74
2023/05/11 05:38:16;;;;;;;73.25;47.92;;;;;;;11.70;100.00;101404.28;5031008;28;20378;-74
2023/05/11 05:40:41;;;;;;;69.93;48.08;;;;;;;11.75;100.00;101397.72;5030642;28;20033;-74
2023/05/11 05:43:07;;;;;;;74.53;49.38;;;;;;;11.81;100.00;101402.59;5023325;28;20052;-74
2023/05/11 05:45:32;;;;;;;79.25;50.47;;;;;;;11.93;100.00;101401.72;5032927;28;20061;-74
2023/05/11 05:48:00;;;;;;;74.55;48.03;;;;;;;11.95;100.00;101406.03;5031311;28;20021;-74
2023/05/11 05:50:26;;;;;;;67.78;47.38;;;;;;;12.00;100.00;101407.41;5032736;28;20029;-74
2023/05/11 05:52:56;;;;;;;71.07;48.55;;;;;;;12.02;100.00;101405.53;5032791;28;20394;-74
2023/05/11 05:55:22;;;;;;;69.22;47.45;;;;;;;12.02;100.00;101410.81;5029345;28;20041;-74
2023/05/11 05:57:48;;;;;;;77.90;47.92;;;;;;;12.05;100.00;101404.47;5026029;28;20034;-74
2023/05/11 06:00:14;;;;;;;74.93;48.35;;;;;;;12.04;100.00;101411.53;5028744;28;20043;-74
2023/05/11 06:02:40;;;;;;;76.15;48.70;;;;;;;12.00;100.00;101411.84;5028589;28;20030;-74
2023/05/11 06:05:06;;;;;;;75.88;49.35;;;;;;;12.00;100.00;101409.19;5027355;28;20052;-74
2023/05/11 06:07:32;;;;;;;79.68;49.55;;;;;;;12.06;100.00;101421.97;5029204;28;20373;-74
2023/05/11 06:09:57;;;;;;;74.95;48.92;;;;;;;12.09;100.00;101419.13;5031441;28;20037;-74
2023/05/11 06:12:23;;;;;;;75.80;49.83;;;;;;;12.17;100.00;101416.78;5031792;28;20087;-73
2023/05/11 06:14:48;;;;;;;78.50;50.10;;;;;;;12.18;100.00;101419.31;5032014;28;20064;-73
2023/05/11 06:17:16;;;;;;;77.45;51.15;;;;;;;12.24;100.00;101420.66;5027902;28;20075;-74
2023/05/11 06:19:41;;;;;;;82.43;51.90;;;;;;;12.23;100.00;101424.25;5012652;28;20552;-74
2023/05/11 06:22:07;;;;;;;74.13;49.60;;;;;;;12.29;100.00;101428.22;5011443;28;20029;-74
2023/05/11 06:24:32;;;;;;;73.32;50.90;;;;;;;12.30;100.00;101430.75;5012487;28;20041;-74
2023/05/11 06:27:01;;;;;;;72.47;49.97;;;;;;;12.29;100.00;101431.72;5041282;28;20516;-74
2023/05/11 06:29:27;;;;;;;77.22;49.97;;;;;;;12.29;100.00;101425.59;5030806;28;20042;-74
2023/05/11 06:31:53;;;;;;;74.25;50.72;;;;;;;12.32;100.00;101428.84;5027303;28;20079;-73
2023/05/11 06:34:19;;;;;;;75.10;49.75;;;;;;;12.37;100.00;101431.16;5031783;28;20100;-73
2023/05/11 06:36:45;;;;;;;77.10;50.88;;;;;;;12.36;100.00;101430.31;5026627;28;20105;-73
2023/05/11 06:39:11;;;;;;;77.15;50.25;;;;;;;12.39;100.00;101430.09;5029206;28;20104;-74
2023/05/11 06:41:37;;;;;;;76.95;48.85;;;;;;;12.36;100.00;101430.31;5032011;28;20548;-74
2023/05/11 06:44:03;;;;;;;75.53;48.65;;;;;;;12.37;100.00;101425.88;5011010;28;20049;-73
2023/05/11 06:46:28;;;;;;;67.22;47.08;;;;;;;12.43;100.00;101436.88;5012227;28;20108;-73
2023/05/11 06:48:55;;;;;;;76.65;50.15;;;;;;;12.46;100.00;101433.16;5030345;28;20385;-74
2023/05/11 06:51:21;;;;;;;73.28;48.47;;;;;;;12.47;100.00;101435.69;5027342;28;20087;-73
2023/05/11 06:53:47;;;;;;;72.50;48.63;;;;;;;12.48;100.00;101445.28;5030562;28;20440;-73
2023/05/11 06:56:12;;;;;;;66.93;48.05;;;;;;;12.49;100.00;101432.94;5027187;28;20040;-73
2023/05/11 06:58:38;;;;;;;77.20;50.33;;;;;;;12.48;100.00;101445.28;5028140;28;20030;-73
2023/05/11 07:01:06;;;;;;;77.88;50.25;;;;;;;12.47;100.00;101451.53;5028210;28;20401;-74
2023/05/11 07:03:35;;;;;;;78.90;51.17;;;;;;;12.46;100.00;101447.19;5028898;28;20025;-73
2023/05/11 07:06:00;;;;;;;82.68;54.65;;;;;;;12.45;100.00;101450.78;5027381;28;20433;-73
2023/05/11 07:08:26;;;;;;;92.00;58.72;;;;;;;12.42;100.00;101448.38;5030929;28;20026;-73
2023/05/11 07:10:52;;;;;;;98.82;60.92;;;;;;;12.45;100.00;101458.72;5027626;28;20021;-73
2023/05/11 07:13:17;;;;;;;101.93;60.67;;;;;;;12.43;100.00;101460.63;5028165;28;20029;-73
2023/05/11 07:15:43;;;;;;;101.25;59.88;;;;;;;12.40;100.00;101452.88;5031386;28;20032;-73
2023/05/11 07:18:08;;;;;;;98.75;61.00;;;;;;;12.39;100.00;101453.84;5030793;28;20069;-74
2023/05/11 07:20:35;;;;;;;95.95;59.95;;;;;;;12.38;100.00;101460.06;5028941;28;20061;-73
2023/05/11 07:23:02;;;;;;;99.28;60.35;;;;;;;12.39;100.00;101455.63;5029347;28;20075;-73
2023/05/11 07:25:28;;;;;;;94.82;59.28;;;;;;;12.39;100.00;101456.47;5032629;28;20060;-73
2023/05/11 07:27:53;;;;;;;102.35;60.58;;;;;;;12.32;100.00;101454.41;5034975;28;20132;-73
2023/05/11 07:30:18;;;;;;;98.80;60.38;;;;;;;12.31;100.00;101456.19;5024207;28;20048;-73
2023/05/11 07:32:46;;;;;;;100.22;60.58;;;;;;;12.36;100.00;101458.50;5010959;28;20033;-74
2023/05/11 07:35:12;;;;;;;92.13;57.75;;;;;;;12.38;100.00;101460.06;5008360;28;20037;-74
2023/05/11 07:37:37;;;;;;;93.00;57.92;;;;;;;12.43;100.00;101451.84;5026449;28;20029;-74
2023/05/11 07:40:06;;;;;;;94.80;58.80;;;;;;;12.54;100.00;101462.47;5024463;28;20359;-73
2023/05/11 07:42:31;;;;;;;102.00;59.63;;;;;;;12.55;100.00;101456.25;5030216;28;20128;-74
2023/05/11 07:45:01;;;;;;;99.25;61.03;;;;;;;12.69;100.00;101457.88;5031226;28;20096;-74
2023/05/11 07:47:27;;;;;;;97.97;58.88;;;;;;;12.74;100.00;101456.56;5028768;28;20036;-74
2023/05/11 07:49:52;;;;;;;100.60;62.03;;;;;;;12.77;100.00;101455.50;5027657;28;20033;-73
2023/05/11 07:52:17;;;;;;;105.50;62.72;;;;;;;12.77;100.00;101455.50;5029443;28;20026;-74
2023/05/11 07:54:43;;;;;;;105.07;63.67;;;;;;;12.80;100.00;101465.84;5029167;28;20018;-74
2023/05/11 07:57:10;;;;;;;109.20;63.85;;;;;;;12.86;100.00;101460.13;5028248;28;20535;-73
2023/05/11 07:59:41;;;;;;;108.97;63.92;;;;;;;12.84;100.00;101467.31;5030788;28;20029;-73
2023/05/11 08:02:08;;;;;;;108.47;66.10;;;;;;;12.83;100.00;101465.63;5027121;28;20052;-72
2023/05/11 08:04:35;;;;;;;110.38;64.63;;;;;;;12.79;100.00;101470.28;5028401;28;20060;-73
2023/05/11 08:07:01;;;;;;;110.15;65.40;;;;;;;12.76;100.00;101473.16;5029642;28;20375;-71
2023/05/11 08:09:27;;;;;;;105.78;63.33;;;;;;;12.72;100.00;101484.88;5026055;28;20037;-73
2023/05/11 08:11:55;;;;;;;103.80;64.20;;;;;;;12.56;100.00;101479.03;5030424;28;20110;-73
2023/05/11 08:14:23;;;;;;;110.40;64.88;;;;;;;12.60;100.00;101490.22;5029861;28;20024;-73
2023/05/11 08:16:52;;;;;;;103.03;64.55;;;;;;;12.56;100.00;101479.03;5028324;28;20030;-73
2023/05/11 08:19:17;;;;;;;108.35;67.22;;;;;;;12.52;100.00;101483.69;5027639;28;20489;-74
2023/05/11 08:21:45;;;;;;;116.18;69.13;;;;;;;12.44;100.00;101485.22;5029834;28;20099;-73
2023/05/11 08:24:10;;;;;;;111.40;67.63;;;;;;;12.45;100.00;101487.75;5022340;28;20367;-73
2023/05/11 08:26:36;;;;;;;109.13;69.05;;;;;;;12.43;100.00;101484.38;5039855;28;20031;-73
2023/05/11 08:29:03;;;;;;;108.63;68.13;;;;;;;12.43;100.00;101484.38;5022850;28;20120;-73
2023/05/11 08:31:28;;;;;;;116.13;69.70;;;;;;;12.47;100.00;101477.06;5027276;28;20398;-73
2023/05/11 08:33:54;;;;;;;113.97;67.90;;;;;;;12.53;100.00;101480.09;5029097;28;20025;-72
2023/05/11 08:36:21;;;;;;;112.70;66.05;;;;;;;12.60;100.00;101484.94;5028737;28;20480;-72
2023/05/11 08:38:47;;;;;;;109.07;66.72;;;;;;;12.70;100.00;101484.16;5025785;28;20028;-72
2023/05/11 08:41:12;;;;;;;106.93;67.07;;;;;;;12.83;100.00;101473.56;5025047;28;20041;-72
2023/05/11 08:43:39;;;;;;;112.28;70.88;;;;;;;12.89;100.00;101475.75;5028125;28;20660;-73
2023/05/11 08:46:07;;;;;;;107.28;66.32;;;;;;;12.90;100.00;101482.72;5028735;28;20061;-72
2023/05/11 08:48:33;;;;;;;103.72;67.00;;;;;;;13.01;100.00;101482.75;5027657;28;20032;-73
2023/05/11 08:51:05;;;;;;;111.93;66.18;;;;;;;13.12;100.00;101480.16;5025635;28;20041;-73
2023/05/11 08:53:30;;;;;;;106.72;69.75;;;;;;;13.12;100.00;101477.50;5027462;28;20512;-74
2023/05/11 08:55:58;;;;;;;111.82;69.47;;;;;;;13.18;100.00;101482.38;5030182;28;20030;-74
2023/05/11 08:58:24;;;;;;;110.13;70.15;;;;;;;13.25;100.00;101481.94;5028670;28;20018;-74
2023/05/11 09:00:50;;;;;;;122.05;71.63;;;;;;;13.38;100.00;101482.69;5027389;28;20030;-74
2023/05/11 09:03:18;;;;;;;110.82;68.72;;;;;;;13.49;100.00;101482.72;5029339;28;20028;-72
2023/05/11 09:05:45;;;;;;;116.20;70.72;;;;;;;13.67;100.00;101485.78;5028865;28;20428;-75
2023/05/11 09:08:12;;;;;;;109.40;67.20;;;;;;;13.82;100.00;101487.22;5029025;28;20501;-73
2023/05/11 09:10:41;;;;;;;104.10;67.63;;;;;;;13.85;100.00;101491.44;5027394;28;20069;-73
2023/05/11 09:13:06;;;;;;;102.35;65.78;;;;;;;13.93;100.00;101499.63;5024679;28;20383;-73
2023/05/11 09:15:31;;;;;;;101.68;62.80;;;;;;;14.02;100.00;101490.97;5026231;28;20021;-74
2023/05/11 09:17:57;;;;;;;104.32;64.50;;;;;;;14.23;100.00;101491.09;5020813;28;20026;-73
2023/05/11 09:20:31;;;;;;;98.18;63.70;;;;;;;14.35;100.00;101498.88;5019533;28;20029;-73
2023/05/11 09:22:57;;;;;;;96.10;62.95;;;;;;;14.18;100.00;101499.41;5016251;28;20061;-71
2023/05/11 09:25:25;;;;;;;100.47;65.07;;;;;;;14.14;100.00;101503.25;5024462;28;20329;-71
2023/05/11 09:27:51;;;;;;;99.10;63.88;;;;;;;14.24;100.00;101492.78;5020784;28;20038;-71
2023/05/11 09:30:21;;;;;;;99.25;64.05;;;;;;;14.15;100.00;101498.78;5027578;28;20017;-71
2023/05/11 09:32:55;;;;;;;97.05;63.92;;;;;;;14.09;100.00;101505.41;5027374;28;20036;-71
2023/05/11 09:35:23;;;;;;;95.75;62.88;;;;;;;14.01;100.00;101503.38;5025198;28;20025;-71
2023/05/11 09:38:06;;;;;;;98.68;64.13;;;;;;;13.95;100.00;101497.69;5021481;28;20034;-71
2023/05/11 09:40:37;;;;;;;103.65;65.63;;;;;;;13.93;100.00;101494.31;5010482;28;20124;-71
2023/05/11 09:43:20;;;;;;;94.65;63.20;;;;;;;13.84;100.00;101498.53;5022792;28;20565;-71
2023/05/11 09:45:48;;;;;;;98.65;64.80;;;;;;;13.90;100.00;101497.19;5011799;28;20064;-71
2023/05/11 09:48:19;;;;;;;105.40;64.78;;;;;;;13.86;100.00;101503.69;5025879;28;20099;-71
2023/05/11 09:50:49;;;;;;;99.32;64.05;;;;;;;13.96;100.00;101502.03;5024724;28;20033;-71
2023/05/11 09:53:15;;;;;;;97.47;63.63;;;;;;;14.01;100.00;101507.81;5028716;28;20037;-72
2023/05/11 09:55:51;;;;;;;100.88;64.47;;;;;;;14.00;100.00;101501.66;5024272;28;20018;-72
2023/05/11 09:58:16;;;;;;;96.00;62.17;;;;;;;14.14;100.00;101503.25;5031829;28;20040;-72
2023/05/11 10:00:55;;;;;;;94.55;61.35;;;;;;;14.21;100.00;101504.44;5031890;28;20463;-72
2023/05/11 10:03:20;;;;;;;94.43;61.63;;;;;;;14.20;100.00;101505.41;5028920;28;20033;-72
2023/05/11 10:05:57;;;;;;;90.05;60.35;;;;;;;14.30;100.00;101503.72;5030795;28;20075;-72
2023/05/11 10:08:33;;;;;;;87.30;59.55;;;;;;;14.31;100.00;101508.03;5033505;28;20515;-72
2023/05/11 10:11:01;;;;;;;82.47;59.05;;;;;;;14.28;100.00;101502.16;5033408;28;20533;-72
2023/05/11 10:13:27;;;;;;;87.90;58.00;;;;;;;14.58;100.00;101498.91;5030931;28;20021;-72
2023/05/11 10:15:53;;;;;;;82.55;55.35;;;;;;;14.72;97.58;101501.28;5031965;28;20037;-72
2023/05/11 10:18:20;;;;;;;79.47;55.28;;;;;;;15.02;99.27;101498.78;5030249;28;20499;-72
2023/05/11 10:20:45;;;;;;;78.97;53.72;;;;;;;15.36;98.94;101493.34;5030582;28;20037;-72
2023/05/11 10:23:15;;;;;;;73.28;51.25;;;;;;;15.49;94.42;101496.63;5016253;28;20036;-72
2023/05/11 10:25:41;;;;;;;74.85;51.22;;;;;;;15.41;94.86;101500.91;5012331;28;20033;-72
2023/05/11 10:28:11;;;;;;;73.82;50.92;;;;;;;15.12;93.19;101505.97;5021588;28;20093;-72
2023/05/11 10:30:37;;;;;;;83.18;55.05;;;;;;;15.14;96.65;101504.03;5029877;28;20049;-72
2023/05/11 10:33:05;;;;;;;81.82;53.03;;;;;;;14.95;97.01;101502.91;5030417;28;20033;-72
2023/05/11 10:35:30;;;;;;;80.30;55.63;;;;;;;14.99;98.59;101506.16;5032244;28;20660;-71
2023/05/11 10:37:57;;;;;;;83.00;57.80;;;;;;;14.84;95.71;101505.59;5031803;28;20028;-71
2023/05/11 10:40:22;;;;;;;86.20;56.97;;;;;;;14.99;96.53;101504.34;5031668;28;20544;-71
2023/05/11 10:43:25;;;;;;;84.53;57.83;;;;;;;14.93;98.06;101502.19;5031943;28;20053;-71
2023/05/11 10:46:07;;;;;;;92.03;59.72;;;;;;;14.72;96.10;101504.75;5032473;28;20049;-75
2023/05/11 10:48:58;;;;;;;85.45;56.10;;;;;;;14.68;94.73;101503.34;5030813;28;20386;-71
2023/05/11 10:51:33;;;;;;;85.78;55.55;;;;;;;14.68;95.71;101505.13;5029891;28;20393;-71
2023/05/11 10:54:17;;;;;;;77.25;53.35;;;;;;;14.73;95.96;101502.97;5032302;28;20040;-71
2023/05/11 10:57:32;;;;;;;83.13;54.92;;;;;;;14.70;97.11;101504.03;5028796;28;20476;-71
2023/05/11 11:00:08;;;;;;;78.93;52.97;;;;;;;14.87;96.63;101489.44;5012443;28;20105;-71
2023/05/11 11:02:35;;;;;;;81.00;52.47;;;;;;;15.01;93.79;101494.44;5012089;28;20049;-71
2023/05/11 11:05:04;;;;;;;79.85;52.42;;;;;;;15.25;94.69;101485.44;5011043;28;20029;-72
2023/05/11 11:07:48;;;;;;;79.15;54.40;;;;;;;15.44;94.23;101477.63;5017117;28;20025;-71